METAR Data
IDs: Format: Raw Decoded Include TAF

Data at: 0140 UTC 24 Oct 2019

METAR for:KIIB (Independence Muni, IA, US)
Text:KIIB 240135Z AUTO 36003KT 10SM -RA OVC037 04/03 A3003 RMK AO2 P0001 T00370032
Temperature: 3.7°C ( 39°F)
Dewpoint: 3.2°C ( 38°F) [RH = 97%]
Pressure (altimeter):30.03 inches Hg (1017.0 mb)
Winds:from the N (360 degrees) at 3 MPH (3 knots; 1.5 m/s)
Visibility:10 or more sm (16+ km)
Ceiling:3700 feet AGL
Clouds: overcast cloud deck at 3700 feet AGL
Weather:-RA (light rain)
QC Flag:automated observation with no human augmentation